createdAt,value
2023-02-27T00:00:53.998Z,-4.04
2023-02-27T00:01:53.933Z,-4.04
2023-02-27T00:02:54.007Z,-4.04
2023-02-27T00:03:53.963Z,-4.03
2023-02-27T00:04:53.907Z,-4.03
2023-02-27T00:05:53.888Z,-4.03
2023-02-27T00:06:53.874Z,-4.04
2023-02-27T00:07:53.870Z,-4.04
2023-02-27T00:08:53.893Z,-4.04
2023-02-27T00:09:53.845Z,-4.04
2023-02-27T00:10:53.860Z,-4.04
2023-02-27T00:11:53.814Z,-4.04
2023-02-27T00:12:53.816Z,-4.04
2023-02-27T00:13:53.796Z,-4.05
2023-02-27T00:14:53.808Z,-4.05
2023-02-27T00:15:53.771Z,-4.05
2023-02-27T00:16:53.752Z,-4.05
2023-02-27T00:17:53.743Z,-4.05
2023-02-27T00:18:53.738Z,-4.05
2023-02-27T00:19:53.726Z,-4.06
2023-02-27T00:20:53.784Z,-4.06
2023-02-27T00:21:53.691Z,-4.06
2023-02-27T00:22:53.680Z,-4.06
2023-02-27T00:23:53.672Z,-4.06
2023-02-27T00:24:53.673Z,-4.06
2023-02-27T00:25:53.669Z,-4.06
2023-02-27T00:26:53.661Z,-4.05
2023-02-27T00:27:53.623Z,-4.05
2023-02-27T00:28:53.620Z,-4.05
2023-02-27T00:29:53.612Z,-4.06
2023-02-27T00:30:53.588Z,-4.06
2023-02-27T00:31:53.684Z,-4.07
2023-02-27T00:32:53.583Z,-4.07
2023-02-27T00:33:53.551Z,-4.08
2023-02-27T00:34:53.560Z,-4.08
2023-02-27T00:35:53.533Z,-4.08
2023-02-27T00:36:53.521Z,-4.08
2023-02-27T00:37:53.498Z,-4.07
2023-02-27T00:38:53.520Z,-4.07
2023-02-27T00:39:53.486Z,-4.06
2023-02-27T00:40:53.455Z,-4.06
2023-02-27T00:41:53.454Z,-4.07
2023-02-27T00:42:53.440Z,-4.08
2023-02-27T00:43:53.442Z,-4.08
2023-02-27T00:44:53.455Z,-4.08
2023-02-27T00:45:53.411Z,-4.09
2023-02-27T00:46:53.410Z,-4.09
2023-02-27T00:47:53.374Z,-4.09
2023-02-27T00:48:53.370Z,-4.10
2023-02-27T00:49:53.366Z,-4.10
2023-02-27T00:50:53.374Z,-4.10
2023-02-27T00:51:53.338Z,-4.10
2023-02-27T00:52:53.312Z,-4.10
2023-02-27T00:53:53.313Z,-4.10
2023-02-27T00:54:53.282Z,-4.11
2023-02-27T00:55:53.286Z,-4.11
2023-02-27T00:56:53.307Z,-4.12
2023-02-27T00:57:53.318Z,-4.13
2023-02-27T00:58:53.223Z,-4.13
2023-02-27T00:59:53.229Z,-4.13
2023-02-27T01:00:53.263Z,-4.14
2023-02-27T01:01:53.216Z,-4.13
2023-02-27T01:02:53.278Z,-4.12
2023-02-27T01:03:53.192Z,-4.11
2023-02-27T01:04:53.158Z,-4.10
2023-02-27T01:05:53.171Z,-4.09
2023-02-27T01:06:53.139Z,-4.08
2023-02-27T01:07:53.143Z,-4.08
2023-02-27T01:08:53.148Z,-4.07
2023-02-27T01:09:53.103Z,-4.07
2023-02-27T01:10:53.092Z,-4.07
2023-02-27T01:11:53.103Z,-4.08
2023-02-27T01:12:53.080Z,-4.09
2023-02-27T01:13:53.064Z,-4.10
2023-02-27T01:14:53.091Z,-4.11
2023-02-27T01:15:53.030Z,-4.12
2023-02-27T01:16:53.029Z,-4.12
2023-02-27T01:17:53.019Z,-4.12
2023-02-27T01:18:52.994Z,-4.12
2023-02-27T01:19:52.986Z,-4.12
2023-02-27T01:20:53.012Z,-4.12
2023-02-27T01:21:52.958Z,-4.12
2023-02-27T01:22:52.949Z,-4.13
2023-02-27T01:23:52.939Z,-4.14
2023-02-27T01:24:52.944Z,-4.14
2023-02-27T01:25:52.920Z,-4.14
2023-02-27T01:26:52.952Z,-4.14
2023-02-27T01:27:52.901Z,-4.15
2023-02-27T01:28:52.891Z,-4.15
2023-02-27T01:29:52.865Z,-4.15
2023-02-27T01:30:53.055Z,-4.15
2023-02-27T01:31:53.099Z,-4.16
2023-02-27T01:32:52.856Z,-4.16
2023-02-27T01:33:52.838Z,-4.16
2023-02-27T01:34:52.804Z,-4.16
2023-02-27T01:35:52.802Z,-4.16
2023-02-27T01:36:52.773Z,-4.16
2023-02-27T01:37:52.768Z,-4.17
2023-02-27T01:38:52.793Z,-4.17
2023-02-27T01:39:52.738Z,-4.18
2023-02-27T01:40:52.728Z,-4.19
2023-02-27T01:41:52.715Z,-4.21
2023-02-27T01:42:52.701Z,-4.23
2023-02-27T01:43:52.698Z,-4.24
2023-02-27T01:44:52.697Z,-4.25
2023-02-27T01:45:52.711Z,-4.26
2023-02-27T01:46:52.655Z,-4.26
2023-02-27T01:47:52.655Z,-4.26
2023-02-27T01:48:52.619Z,-4.26
2023-02-27T01:49:52.625Z,-4.25
2023-02-27T01:50:52.644Z,-4.24
2023-02-27T01:51:52.593Z,-4.23
2023-02-27T01:52:52.598Z,-4.21
2023-02-27T01:53:52.565Z,-4.20
2023-02-27T01:54:52.559Z,-4.18
2023-02-27T01:55:52.535Z,-4.17
2023-02-27T01:56:52.580Z,-4.17
2023-02-27T01:57:52.521Z,-4.17
2023-02-27T01:58:52.498Z,-4.17
2023-02-27T01:59:52.535Z,-4.17
2023-02-27T02:00:52.600Z,-4.17
2023-02-27T02:01:59.058Z,-4.17
2023-02-27T02:02:52.466Z,-4.16
2023-02-27T02:03:52.457Z,-4.16
2023-02-27T02:04:52.450Z,-4.15
2023-02-27T02:05:52.419Z,-4.15
2023-02-27T02:06:52.435Z,-4.15
2023-02-27T02:07:52.431Z,-4.15
2023-02-27T02:08:52.428Z,-4.14
2023-02-27T02:09:52.379Z,-4.13
2023-02-27T02:10:52.381Z,-4.12
2023-02-27T02:11:52.345Z,-4.11
2023-02-27T02:12:52.345Z,-4.10
2023-02-27T02:13:52.374Z,-4.09
2023-02-27T02:14:52.340Z,-4.09
2023-02-27T02:15:52.319Z,-4.09
2023-02-27T02:16:52.369Z,-4.08
2023-02-27T02:17:52.278Z,-4.08
2023-02-27T02:18:52.272Z,-4.07
2023-02-27T02:19:52.287Z,-4.07
2023-02-27T02:20:52.255Z,-4.06
2023-02-27T02:21:52.226Z,-4.05
2023-02-27T02:22:52.260Z,-4.05
2023-02-27T02:23:52.206Z,-4.04
2023-02-27T02:24:52.233Z,-4.04
2023-02-27T02:25:52.236Z,-4.04
2023-02-27T02:26:52.176Z,-4.04
2023-02-27T02:27:52.152Z,-4.03
2023-02-27T02:28:52.154Z,-4.02
2023-02-27T02:29:52.161Z,-4.01
2023-02-27T02:30:52.249Z,-4.01
2023-02-27T02:31:52.320Z,-4.01
2023-02-27T02:32:52.150Z,-4.02
2023-02-27T02:33:52.151Z,-4.03
2023-02-27T02:34:52.063Z,-4.04
2023-02-27T02:35:52.071Z,-4.05
2023-02-27T02:36:52.043Z,-4.07
2023-02-27T02:37:52.097Z,-4.08
2023-02-27T02:38:52.036Z,-4.10
2023-02-27T02:39:52.033Z,-4.11
2023-02-27T02:40:52.001Z,-4.12
2023-02-27T02:41:51.973Z,-4.13
2023-02-27T02:42:53.330Z,-4.13
2023-02-27T02:43:51.966Z,-4.13
2023-02-27T02:44:51.958Z,-4.11
2023-02-27T02:45:52.004Z,-4.10
2023-02-27T02:46:51.936Z,-4.10
2023-02-27T02:47:51.903Z,-4.10
2023-02-27T02:48:51.932Z,-4.10
2023-02-27T02:49:51.938Z,-4.10
2023-02-27T02:50:51.892Z,-4.08
2023-02-27T02:51:51.897Z,-4.06
2023-02-27T02:52:51.855Z,-4.04
2023-02-27T02:53:51.876Z,-4.02
2023-02-27T02:54:51.851Z,-4.01
2023-02-27T02:55:51.848Z,-4.00
2023-02-27T02:56:51.804Z,-4.00
2023-02-27T02:57:51.787Z,-3.99
2023-02-27T02:58:51.775Z,-3.99
2023-02-27T02:59:51.797Z,-3.99
2023-02-27T03:00:51.761Z,-3.99
2023-02-27T03:01:51.809Z,-3.99
2023-02-27T03:02:51.728Z,-3.99
2023-02-27T03:03:51.715Z,-3.99
2023-02-27T03:04:51.695Z,-3.99
2023-02-27T03:05:51.705Z,-3.98
2023-02-27T03:06:51.694Z,-3.98
2023-02-27T03:07:51.767Z,-3.98
2023-02-27T03:08:51.667Z,-3.99
2023-02-27T03:09:51.654Z,-3.99
2023-02-27T03:10:51.619Z,-4.00
2023-02-27T03:11:51.622Z,-4.01
2023-02-27T03:12:51.602Z,-4.02
2023-02-27T03:13:51.637Z,-4.03
2023-02-27T03:14:51.612Z,-4.04
2023-02-27T03:15:51.569Z,-4.04
2023-02-27T03:16:51.556Z,-4.05
2023-02-27T03:17:51.526Z,-4.07
2023-02-27T03:18:51.543Z,-4.07
2023-02-27T03:19:51.542Z,-4.08
2023-02-27T03:20:51.540Z,-4.09
2023-02-27T03:21:51.505Z,-4.10
2023-02-27T03:22:51.485Z,-4.11
2023-02-27T03:23:51.502Z,-4.12
2023-02-27T03:24:51.471Z,-4.13
2023-02-27T03:25:51.489Z,-4.15
2023-02-27T03:26:51.424Z,-4.16
2023-02-27T03:27:51.403Z,-4.17
2023-02-27T03:28:51.387Z,-4.17
2023-02-27T03:29:51.409Z,-4.17
2023-02-27T03:30:51.473Z,-4.18
2023-02-27T03:31:51.532Z,-4.18
2023-02-27T03:32:51.351Z,-4.18
2023-02-27T03:33:51.342Z,-4.19
2023-02-27T03:34:51.328Z,-4.19
2023-02-27T03:35:51.326Z,-4.20
2023-02-27T03:36:51.298Z,-4.21
2023-02-27T03:37:51.322Z,-4.22
2023-02-27T03:38:51.288Z,-4.24
2023-02-27T03:39:51.288Z,-4.25
2023-02-27T03:40:51.266Z,-4.26
2023-02-27T03:41:51.237Z,-4.26
2023-02-27T03:42:51.236Z,-4.26
2023-02-27T03:43:51.318Z,-4.26
2023-02-27T03:44:52.453Z,-4.27
2023-02-27T03:45:51.231Z,-4.27
2023-02-27T03:46:51.201Z,-4.27
2023-02-27T03:47:51.157Z,-4.28
2023-02-27T03:48:51.139Z,-4.28
2023-02-27T03:49:51.208Z,-4.29
2023-02-27T03:50:51.144Z,-4.30
2023-02-27T03:51:51.105Z,-4.31
2023-02-27T03:52:51.133Z,-4.31
2023-02-27T03:53:51.093Z,-4.32
2023-02-27T03:54:51.116Z,-4.32
2023-02-27T03:55:51.096Z,-4.32
2023-02-27T03:56:51.038Z,-4.32
2023-02-27T03:57:51.061Z,-4.32
2023-02-27T03:58:51.035Z,-4.31
2023-02-27T03:59:51.021Z,-4.30
2023-02-27T04:00:50.989Z,-4.28
2023-02-27T04:01:51.086Z,-4.27
2023-02-27T04:02:51.033Z,-4.26
2023-02-27T04:03:50.991Z,-4.26
2023-02-27T04:04:50.956Z,-4.27
2023-02-27T04:05:50.932Z,-4.27
2023-02-27T04:06:50.957Z,-4.28
2023-02-27T04:07:50.988Z,-4.28
2023-02-27T04:08:50.894Z,-4.28
2023-02-27T04:09:50.902Z,-4.28
2023-02-27T04:10:50.915Z,-4.29
2023-02-27T04:11:50.896Z,-4.29
2023-02-27T04:12:50.870Z,-4.30
2023-02-27T04:13:50.925Z,-4.30
2023-02-27T04:14:50.817Z,-4.30
2023-02-27T04:15:50.890Z,-4.30
2023-02-27T04:16:50.852Z,-4.30
2023-02-27T04:17:50.787Z,-4.30
2023-02-27T04:18:50.770Z,-4.30
2023-02-27T04:19:50.799Z,-4.31
2023-02-27T04:20:50.773Z,-4.31
2023-02-27T04:21:50.773Z,-4.31
2023-02-27T04:22:50.732Z,-4.31
2023-02-27T04:23:50.716Z,-4.31
2023-02-27T04:24:50.748Z,-4.31
2023-02-27T04:25:50.722Z,-4.30
2023-02-27T04:26:50.957Z,-4.29
2023-02-27T04:27:50.656Z,-4.29
2023-02-27T04:28:50.652Z,-4.30
2023-02-27T04:29:50.707Z,-4.30
2023-02-27T04:30:50.703Z,-4.30
2023-02-27T04:31:51.003Z,-4.30
2023-02-27T04:32:50.683Z,-4.31
2023-02-27T04:33:50.596Z,-4.31
2023-02-27T04:34:50.594Z,-4.30
2023-02-27T04:35:50.581Z,-4.29
2023-02-27T04:36:50.587Z,-4.28
2023-02-27T04:37:50.606Z,-4.28
2023-02-27T04:38:50.537Z,-4.27
2023-02-27T04:39:50.541Z,-4.26
2023-02-27T04:40:50.543Z,-4.26
2023-02-27T04:41:50.532Z,-4.26
2023-02-27T04:42:50.491Z,-4.26
2023-02-27T04:43:50.547Z,-4.26
2023-02-27T04:44:50.467Z,-4.27
2023-02-27T04:45:50.509Z,-4.26
2023-02-27T04:46:50.500Z,-4.26
2023-02-27T04:47:50.459Z,-4.26
2023-02-27T04:48:50.413Z,-4.25
2023-02-27T04:49:50.470Z,-4.25
2023-02-27T04:50:50.391Z,-4.25
2023-02-27T04:51:50.394Z,-4.25
2023-02-27T04:52:50.397Z,-4.26
2023-02-27T04:53:50.352Z,-4.26
2023-02-27T04:54:50.353Z,-4.26
2023-02-27T04:55:50.370Z,-4.26
2023-02-27T04:56:50.345Z,-4.25
2023-02-27T04:57:50.316Z,-4.25
2023-02-27T04:58:50.302Z,-4.25
2023-02-27T04:59:50.379Z,-4.24
2023-02-27T05:00:50.281Z,-4.24
2023-02-27T05:01:50.344Z,-4.24
2023-02-27T05:02:50.319Z,-4.23
2023-02-27T05:03:50.256Z,-4.23
2023-02-27T05:04:50.229Z,-4.23
2023-02-27T05:05:50.200Z,-4.23
2023-02-27T05:06:50.208Z,-4.23
2023-02-27T05:07:50.227Z,-4.23
2023-02-27T05:08:50.167Z,-4.22
2023-02-27T05:09:50.171Z,-4.22
2023-02-27T05:10:50.136Z,-4.21
2023-02-27T05:11:50.139Z,-4.20
2023-02-27T05:12:50.134Z,-4.19
2023-02-27T05:13:50.136Z,-4.19
2023-02-27T05:14:50.099Z,-4.18
2023-02-27T05:15:50.135Z,-4.17
2023-02-27T05:16:50.067Z,-4.17
2023-02-27T05:17:50.073Z,-4.17
2023-02-27T05:18:50.068Z,-4.17
2023-02-27T05:19:50.085Z,-4.17
2023-02-27T05:20:50.018Z,-4.17
2023-02-27T05:21:50.017Z,-4.18
2023-02-27T05:22:49.996Z,-4.18
2023-02-27T05:23:49.997Z,-4.19
2023-02-27T05:24:50.832Z,-4.20
2023-02-27T05:25:50.006Z,-4.20
2023-02-27T05:26:49.974Z,-4.20
2023-02-27T05:27:49.938Z,-4.20
2023-02-27T05:28:49.910Z,-4.21
2023-02-27T05:29:49.894Z,-4.21
2023-02-27T05:30:49.968Z,-4.21
2023-02-27T05:31:50.038Z,-4.21
2023-02-27T05:32:49.910Z,-4.21
2023-02-27T05:33:49.860Z,-4.21
2023-02-27T05:34:49.864Z,-4.20
2023-02-27T05:35:49.901Z,-4.20
2023-02-27T05:36:49.836Z,-4.19
2023-02-27T05:37:49.830Z,-4.19
2023-02-27T05:38:49.799Z,-4.18
2023-02-27T05:39:49.803Z,-4.18
2023-02-27T05:40:49.792Z,-4.17
2023-02-27T05:41:49.766Z,-4.17
2023-02-27T05:42:49.804Z,-4.17
2023-02-27T05:43:49.753Z,-4.17
2023-02-27T05:44:49.767Z,-4.17
2023-02-27T05:45:49.740Z,-4.17
2023-02-27T05:46:49.703Z,-4.17
2023-02-27T05:47:49.692Z,-4.17
2023-02-27T05:48:49.675Z,-4.17
2023-02-27T05:49:49.729Z,-4.17
2023-02-27T05:50:49.645Z,-4.17
2023-02-27T05:51:49.688Z,-4.16
2023-02-27T05:55:28.839Z,-2.95
2023-02-27T05:55:34.316Z,-3.42
2023-02-27T05:56:34.254Z,-3.73
2023-02-27T05:57:34.214Z,-3.90
2023-02-27T05:58:34.207Z,-3.98
2023-02-27T06:01:01.336Z,-4.03
2023-02-27T06:01:06.764Z,-4.05
2023-02-27T06:02:06.749Z,-4.06
2023-02-27T06:03:06.733Z,-4.06
2023-02-27T06:04:06.712Z,-4.05
2023-02-27T06:05:06.688Z,-4.05
2023-02-27T06:06:06.727Z,-4.05
2023-02-27T06:07:08.483Z,-4.05
2023-02-27T06:08:06.696Z,-4.05
2023-02-27T06:09:06.644Z,-4.05
2023-02-27T06:10:07.366Z,-4.04
2023-02-27T06:11:06.617Z,-4.04
2023-02-27T06:12:06.651Z,-4.04
2023-02-27T06:13:06.601Z,-4.04
2023-02-27T06:14:06.642Z,-4.05
2023-02-27T06:15:06.579Z,-4.05
2023-02-27T06:16:06.584Z,-4.05
2023-02-27T06:17:06.637Z,-4.05
2023-02-27T06:18:06.571Z,-4.05
2023-02-27T06:19:06.546Z,-4.04
2023-02-27T06:20:06.508Z,-4.04
2023-02-27T06:21:06.504Z,-4.03
2023-02-27T06:22:06.493Z,-4.02
2023-02-27T06:23:06.502Z,-4.02
2023-02-27T06:24:06.548Z,-4.01
2023-02-27T06:25:06.459Z,-4.01
2023-02-27T06:26:06.447Z,-4.01
2023-02-27T06:27:06.478Z,-4.01
2023-02-27T06:28:06.656Z,-4.01
2023-02-27T06:29:06.487Z,-4.01
2023-02-27T06:30:06.431Z,-4.00
2023-02-27T06:31:06.437Z,-3.99
2023-02-27T06:32:06.450Z,-3.99
2023-02-27T06:33:06.346Z,-3.98
2023-02-27T06:34:06.348Z,-3.98
2023-02-27T06:35:06.384Z,-3.98
2023-02-27T06:36:06.366Z,-3.99
2023-02-27T06:37:06.343Z,-3.99
2023-02-27T06:38:06.341Z,-3.99
2023-02-27T06:39:06.297Z,-3.99
2023-02-27T06:40:06.261Z,-3.99
2023-02-27T06:45:07.324Z,-3.98
2023-02-27T06:45:12.775Z,-3.98
2023-02-27T06:46:12.759Z,-3.97
2023-02-27T06:47:12.736Z,-3.97
2023-02-27T06:48:12.713Z,-3.97
2023-02-27T06:49:12.688Z,-3.96
2023-02-27T06:50:12.754Z,-3.96
2023-02-27T06:51:12.651Z,-3.96
2023-02-27T06:52:12.656Z,-3.95
2023-02-27T06:53:12.678Z,-3.95
2023-02-27T06:54:12.623Z,-3.95
2023-02-27T06:55:12.622Z,-3.95
2023-02-27T06:56:12.630Z,-3.94
2023-02-27T06:57:12.586Z,-3.94
2023-02-27T06:58:12.584Z,-3.93
2023-02-27T06:59:12.893Z,-3.93
2023-02-27T07:00:12.596Z,-3.92
2023-02-27T07:01:12.583Z,-3.91
2023-02-27T07:02:12.587Z,-3.91
2023-02-27T07:03:12.529Z,-3.90
2023-02-27T07:04:12.507Z,-3.90
2023-02-27T07:05:12.482Z,-3.89
2023-02-27T07:06:12.478Z,-3.88
2023-02-27T07:07:36.368Z,-3.87
2023-02-27T07:08:12.542Z,-3.86
2023-02-27T07:09:12.457Z,-3.86
2023-02-27T07:10:12.438Z,-3.84
2023-02-27T07:11:12.469Z,-3.82
2023-02-27T07:12:12.488Z,-3.81
2023-02-27T07:13:14.738Z,-3.80
2023-02-27T07:14:12.455Z,-3.79
2023-02-27T07:15:12.381Z,-3.78
2023-02-27T07:16:12.406Z,-3.76
2023-02-27T07:17:12.365Z,-3.75
2023-02-27T07:18:12.330Z,-3.75
2023-02-27T07:19:12.323Z,-3.75
2023-02-27T07:20:12.345Z,-3.75
2023-02-27T07:21:12.326Z,-3.75
2023-02-27T07:22:12.323Z,-3.74
2023-02-27T07:23:12.283Z,-3.74
2023-02-27T07:24:12.265Z,-3.74
2023-02-27T07:25:12.237Z,-3.74
2023-02-27T07:26:12.266Z,-3.74
2023-02-27T07:27:12.231Z,-3.74
2023-02-27T07:28:12.240Z,-3.74
2023-02-27T07:29:12.216Z,-3.73
2023-02-27T07:30:12.175Z,-3.72
2023-02-27T07:31:12.210Z,-3.70
2023-02-27T07:32:12.228Z,-3.68
2023-02-27T07:33:12.156Z,-3.67
2023-02-27T07:34:12.137Z,-3.67
2023-02-27T07:35:12.137Z,-3.68
2023-02-27T07:36:12.110Z,-3.67
2023-02-27T07:37:12.121Z,-3.65
2023-02-27T07:38:12.175Z,-3.64
2023-02-27T07:39:12.082Z,-3.62
2023-02-27T07:40:12.050Z,-3.61
2023-02-27T07:41:21.281Z,-3.61
2023-02-27T07:42:12.056Z,-3.63
2023-02-27T07:43:12.030Z,-3.62
2023-02-27T07:44:12.096Z,-3.62
2023-02-27T07:45:12.009Z,-3.63
2023-02-27T07:46:12.029Z,-3.64
2023-02-27T07:47:12.002Z,-3.65
2023-02-27T07:48:11.975Z,-3.66
2023-02-27T07:49:11.957Z,-3.67
2023-02-27T07:50:12.008Z,-3.68
2023-02-27T07:51:11.926Z,-3.68
2023-02-27T07:52:11.901Z,-3.69
2023-02-27T07:53:11.936Z,-3.71
2023-02-27T07:54:11.899Z,-3.71
2023-02-27T07:55:11.875Z,-3.71
2023-02-27T07:56:11.892Z,-3.71
2023-02-27T07:57:11.878Z,-3.71
2023-02-27T07:58:11.848Z,-3.70
2023-02-27T07:59:11.816Z,-3.70
2023-02-27T08:00:11.811Z,-3.69
2023-02-27T08:01:11.811Z,-3.69
2023-02-27T08:02:11.828Z,-3.69
2023-02-27T08:03:11.789Z,-3.69
2023-02-27T08:04:11.784Z,-3.68
2023-02-27T08:05:11.752Z,-3.68
2023-02-27T08:06:11.740Z,-3.68
2023-02-27T08:07:11.726Z,-3.68
2023-02-27T08:08:11.752Z,-3.66
2023-02-27T08:09:11.706Z,-3.64
2023-02-27T08:10:11.683Z,-3.63
2023-02-27T08:11:11.687Z,-3.62
2023-02-27T08:12:11.652Z,-3.61
2023-02-27T08:13:11.655Z,-3.60
2023-02-27T08:14:11.660Z,-3.61
2023-02-27T08:15:11.633Z,-3.62
2023-02-27T08:16:11.704Z,-3.63
2023-02-27T08:17:11.617Z,-3.64
2023-02-27T08:18:11.602Z,-3.62
2023-02-27T08:19:11.600Z,-3.61
2023-02-27T08:20:11.626Z,-3.61
2023-02-27T08:21:11.563Z,-3.63
2023-02-27T08:22:11.555Z,-3.64
2023-02-27T08:23:11.562Z,-3.64
2023-02-27T08:24:11.539Z,-3.64
2023-02-27T08:25:11.562Z,-3.64
2023-02-27T08:26:11.551Z,-3.63
2023-02-27T08:27:11.496Z,-3.61
2023-02-27T08:28:11.594Z,-3.58
2023-02-27T08:29:11.442Z,-3.57
2023-02-27T08:30:11.469Z,-3.55
2023-02-27T08:31:11.494Z,-3.54
2023-02-27T08:32:11.635Z,-3.54
2023-02-27T08:33:11.431Z,-3.56
2023-02-27T08:34:11.447Z,-3.58
2023-02-27T08:35:11.388Z,-3.57
2023-02-27T08:36:11.506Z,-3.54
2023-02-27T08:37:11.382Z,-3.51
2023-02-27T08:38:11.477Z,-3.49
2023-02-27T08:39:11.356Z,-3.48
2023-02-27T08:40:11.307Z,-3.49
2023-02-27T08:41:11.288Z,-3.49
2023-02-27T08:42:11.312Z,-3.49
2023-02-27T08:43:11.280Z,-3.48
2023-02-27T08:44:11.296Z,-3.47
2023-02-27T08:45:11.269Z,-3.44
2023-02-27T08:46:11.339Z,-3.42
2023-02-27T08:47:11.227Z,-3.41
2023-02-27T08:48:11.201Z,-3.40
2023-02-27T08:49:11.195Z,-3.39
2023-02-27T08:50:11.251Z,-3.39
2023-02-27T08:51:11.164Z,-3.39
2023-02-27T08:52:11.178Z,-3.39
2023-02-27T08:53:11.166Z,-3.40
2023-02-27T08:54:11.144Z,-3.40
2023-02-27T08:55:11.121Z,-3.39
2023-02-27T08:56:11.150Z,-3.38
2023-02-27T08:57:11.258Z,-3.37
2023-02-27T08:58:11.113Z,-3.37
2023-02-27T08:59:11.081Z,-3.35
2023-02-27T09:00:11.096Z,-3.34
2023-02-27T09:01:11.091Z,-3.31
2023-02-27T09:02:11.177Z,-3.27
2023-02-27T09:03:11.062Z,-3.24
2023-02-27T09:04:11.080Z,-3.22
2023-02-27T09:05:11.021Z,-3.23
2023-02-27T09:06:10.983Z,-3.26
2023-02-27T09:07:10.953Z,-3.29
2023-02-27T09:08:11.003Z,-3.30
2023-02-27T09:09:10.941Z,-3.29
2023-02-27T09:10:10.944Z,-3.27
2023-02-27T09:11:10.946Z,-3.22
2023-02-27T09:12:10.942Z,-3.16
2023-02-27T09:13:10.925Z,-3.08
2023-02-27T09:14:10.909Z,-3.01
2023-02-27T09:15:10.873Z,-2.98
2023-02-27T09:16:10.883Z,-2.98
2023-02-27T09:17:10.888Z,-2.98
2023-02-27T09:18:10.827Z,-2.98
2023-02-27T09:19:10.828Z,-2.98
2023-02-27T09:20:10.849Z,-2.98
2023-02-27T09:21:10.801Z,-2.97
2023-02-27T09:22:10.865Z,-2.95
2023-02-27T09:23:10.904Z,-2.91
2023-02-27T09:24:19.737Z,-2.86
2023-02-27T09:25:10.736Z,-2.80
2023-02-27T09:26:10.798Z,-2.77
2023-02-27T09:27:10.702Z,-2.75
2023-02-27T09:28:10.733Z,-2.73
2023-02-27T09:29:10.698Z,-2.72
2023-02-27T09:30:11.003Z,-2.69
2023-02-27T09:31:10.674Z,-2.66
2023-02-27T09:32:10.734Z,-2.66
2023-02-27T09:33:10.641Z,-2.71
2023-02-27T09:34:10.641Z,-2.76
2023-02-27T09:35:10.600Z,-2.80
2023-02-27T09:36:10.605Z,-2.81
2023-02-27T09:37:10.590Z,-2.80
2023-02-27T09:38:10.633Z,-2.77
2023-02-27T09:39:10.553Z,-2.73
2023-02-27T09:40:10.618Z,-2.73
2023-02-27T09:41:10.536Z,-2.77
2023-02-27T09:42:10.561Z,-2.81
2023-02-27T09:43:10.514Z,-2.84
2023-02-27T09:44:10.573Z,-2.85
2023-02-27T09:45:10.498Z,-2.87
2023-02-27T09:46:10.546Z,-2.87
2023-02-27T09:47:10.470Z,-2.86
2023-02-27T09:48:10.436Z,-2.84
2023-02-27T09:49:10.449Z,-2.79
2023-02-27T09:50:10.477Z,-2.73
2023-02-27T09:51:10.415Z,-2.70
2023-02-27T09:52:10.386Z,-2.71
2023-02-27T09:53:10.366Z,-2.70
2023-02-27T09:54:10.394Z,-2.71
2023-02-27T09:55:10.355Z,-2.75
2023-02-27T09:56:10.371Z,-2.78
2023-02-27T09:57:10.318Z,-2.80
2023-02-27T09:58:10.320Z,-2.80
2023-02-27T09:59:10.353Z,-2.79
2023-02-27T10:00:10.300Z,-2.78
2023-02-27T10:01:10.307Z,-2.78
2023-02-27T10:02:10.395Z,-2.78
2023-02-27T10:03:10.308Z,-2.77
2023-02-27T10:04:11.245Z,-2.78
2023-02-27T10:05:10.236Z,-2.82
2023-02-27T10:06:10.218Z,-2.85
2023-02-27T10:07:10.197Z,-2.83
2023-02-27T10:08:10.236Z,-2.81
2023-02-27T10:09:10.167Z,-2.78
2023-02-27T10:10:10.192Z,-2.76
2023-02-27T10:11:10.145Z,-2.75
2023-02-27T10:12:10.178Z,-2.74
2023-02-27T10:13:10.122Z,-2.73
2023-02-27T10:14:10.190Z,-2.73
2023-02-27T10:15:10.121Z,-2.73
2023-02-27T10:16:10.127Z,-2.71
2023-02-27T10:17:10.085Z,-2.69
2023-02-27T10:18:25.457Z,-2.68
2023-02-27T10:19:10.072Z,-2.68
2023-02-27T10:20:10.106Z,-2.66
2023-02-27T10:21:10.018Z,-2.64
2023-02-27T10:22:10.105Z,-2.62
2023-02-27T10:23:10.010Z,-2.64
2023-02-27T10:24:09.984Z,-2.66
2023-02-27T10:25:24.792Z,-2.67
2023-02-27T10:26:09.997Z,-2.67
2023-02-27T10:27:09.956Z,-2.68
2023-02-27T10:28:09.959Z,-2.71
2023-02-27T10:29:09.970Z,-2.75
2023-02-27T10:30:12.922Z,-2.80
2023-02-27T10:31:09.953Z,-2.84
2023-02-27T10:32:09.990Z,-2.86
2023-02-27T10:33:09.890Z,-2.85
2023-02-27T10:34:09.851Z,-2.82
2023-02-27T10:35:09.895Z,-2.80
2023-02-27T10:36:11.227Z,-2.78
2023-02-27T10:37:09.832Z,-2.78
2023-02-27T10:38:09.880Z,-2.78
2023-02-27T10:39:09.793Z,-2.75
2023-02-27T10:40:09.793Z,-2.73
2023-02-27T10:41:09.799Z,-2.73
2023-02-27T10:42:09.791Z,-2.76
2023-02-27T10:43:09.744Z,-2.78
2023-02-27T10:44:09.797Z,-2.77
2023-02-27T10:45:09.736Z,-2.75
2023-02-27T10:46:09.721Z,-2.73
2023-02-27T10:47:09.752Z,-2.71
2023-02-27T10:48:09.676Z,-2.67
2023-02-27T10:49:09.673Z,-2.64
2023-02-27T10:50:09.764Z,-2.62
2023-02-27T10:51:09.665Z,-2.62
2023-02-27T10:52:09.648Z,-2.64
2023-02-27T10:53:09.709Z,-2.64
2023-02-27T10:54:09.605Z,-2.63
2023-02-27T10:55:09.596Z,-2.62
2023-02-27T10:56:09.614Z,-2.62
2023-02-27T10:57:09.677Z,-2.62
2023-02-27T10:58:09.580Z,-2.59
2023-02-27T10:59:09.552Z,-2.54
2023-02-27T11:00:09.519Z,-2.47
2023-02-27T11:01:09.651Z,-2.42
2023-02-27T11:02:09.559Z,-2.38
2023-02-27T11:03:09.498Z,-2.37
2023-02-27T11:04:09.503Z,-2.38
2023-02-27T11:05:09.476Z,-2.41
2023-02-27T11:06:09.512Z,-2.43
2023-02-27T11:07:09.457Z,-2.43
2023-02-27T11:08:09.448Z,-2.42
2023-02-27T11:09:09.405Z,-2.41
2023-02-27T11:10:09.395Z,-2.41
2023-02-27T11:11:09.408Z,-2.42
2023-02-27T11:12:09.408Z,-2.44
2023-02-27T11:13:09.372Z,-2.48
2023-02-27T11:14:09.443Z,-2.51
2023-02-27T11:15:09.382Z,-2.52
2023-02-27T11:16:09.393Z,-2.50
2023-02-27T11:17:09.364Z,-2.47
2023-02-27T11:18:09.295Z,-2.46
2023-02-27T11:19:09.315Z,-2.46
2023-02-27T11:20:09.343Z,-2.46
2023-02-27T11:21:09.288Z,-2.49
2023-02-27T11:22:09.332Z,-2.53
2023-02-27T11:23:09.242Z,-2.56
2023-02-27T11:24:09.256Z,-2.54
2023-02-27T11:25:09.205Z,-2.52
2023-02-27T11:26:09.293Z,-2.49
2023-02-27T11:27:09.251Z,-2.46
2023-02-27T11:28:09.180Z,-2.44
2023-02-27T11:29:09.184Z,-2.44
2023-02-27T11:30:09.150Z,-2.46
2023-02-27T11:31:09.281Z,-2.49
2023-02-27T11:32:09.210Z,-2.50
2023-02-27T11:33:09.124Z,-2.48
2023-02-27T11:34:09.108Z,-2.47
2023-02-27T11:35:09.089Z,-2.46
2023-02-27T11:36:09.127Z,-2.45
2023-02-27T11:37:09.080Z,-2.44
2023-02-27T11:38:09.088Z,-2.43
2023-02-27T11:39:09.062Z,-2.43
2023-02-27T11:40:09.028Z,-2.44
2023-02-27T11:41:09.005Z,-2.45
2023-02-27T11:42:09.041Z,-2.47
2023-02-27T11:43:08.982Z,-2.49
2023-02-27T11:44:09.092Z,-2.50
2023-02-27T11:45:08.975Z,-2.50
2023-02-27T11:46:38.226Z,-2.49
2023-02-27T11:47:09.033Z,-2.49
2023-02-27T11:48:08.961Z,-2.48
2023-02-27T11:49:08.904Z,-2.50
2023-02-27T11:50:08.974Z,-2.53
2023-02-27T11:51:08.938Z,-2.53
2023-02-27T11:52:08.899Z,-2.51
2023-02-27T11:53:08.884Z,-2.49
2023-02-27T11:54:08.872Z,-2.51
2023-02-27T11:55:08.831Z,-2.50
2023-02-27T11:56:08.883Z,-2.46
2023-02-27T11:57:08.820Z,-2.41
2023-02-27T11:58:08.838Z,-2.38
2023-02-27T11:59:08.807Z,-2.38
2023-02-27T12:00:08.784Z,-2.39
2023-02-27T12:01:08.761Z,-2.41
2023-02-27T12:02:08.794Z,-2.41
2023-02-27T12:03:08.849Z,-2.40
2023-02-27T12:04:08.758Z,-2.39
2023-02-27T12:05:08.705Z,-2.38
2023-02-27T12:06:08.693Z,-2.38
2023-02-27T12:07:08.717Z,-2.35
2023-02-27T12:08:08.729Z,-2.33
2023-02-27T12:09:08.757Z,-2.33
2023-02-27T12:10:08.717Z,-2.32
2023-02-27T12:11:14.326Z,-2.31
2023-02-27T12:12:08.671Z,-2.29
2023-02-27T12:13:08.636Z,-2.24
2023-02-27T12:14:08.666Z,-2.19
2023-02-27T12:15:08.622Z,-2.16
2023-02-27T12:16:08.807Z,-2.15
2023-02-27T12:17:08.612Z,-2.13
2023-02-27T12:18:08.540Z,-2.08
2023-02-27T12:19:08.581Z,-2.05
2023-02-27T12:20:08.590Z,-2.02
2023-02-27T12:21:08.548Z,-1.99
2023-02-27T12:22:08.532Z,-1.98
2023-02-27T12:23:08.476Z,-2.00
2023-02-27T12:24:08.537Z,-2.05
2023-02-27T12:25:08.449Z,-2.06
2023-02-27T12:26:08.543Z,-2.07
2023-02-27T12:27:08.429Z,-2.11
2023-02-27T12:28:08.446Z,-2.14
2023-02-27T12:29:08.466Z,-2.17
2023-02-27T12:30:08.426Z,-2.24
2023-02-27T12:31:08.454Z,-2.32
2023-02-27T12:32:08.575Z,-2.41
2023-02-27T12:33:08.402Z,-2.48
2023-02-27T12:34:08.371Z,-2.50
2023-02-27T12:35:08.333Z,-2.47
2023-02-27T12:36:08.365Z,-2.42
2023-02-27T12:37:08.292Z,-2.39
2023-02-27T12:38:08.337Z,-2.37
2023-02-27T12:39:08.326Z,-2.41
2023-02-27T12:40:08.262Z,-2.46
2023-02-27T12:41:08.241Z,-2.50
2023-02-27T12:42:08.226Z,-2.51
2023-02-27T12:43:10.664Z,-2.50
2023-02-27T12:44:08.270Z,-2.47
2023-02-27T12:45:08.211Z,-2.48
2023-02-27T12:46:08.220Z,-2.54
2023-02-27T12:47:08.179Z,-2.57
2023-02-27T12:48:08.189Z,-2.58
2023-02-27T12:49:09.076Z,-2.57
2023-02-27T12:50:08.151Z,-2.53
2023-02-27T12:51:08.156Z,-2.50
2023-02-27T12:52:08.105Z,-2.49
2023-02-27T12:53:08.083Z,-2.50
2023-02-27T12:54:08.102Z,-2.51
2023-02-27T12:55:08.116Z,-2.51
2023-02-27T12:56:08.076Z,-2.49
2023-02-27T12:57:08.044Z,-2.41
2023-02-27T12:58:08.047Z,-2.33